createdAt,value
2022-11-09T00:01:06.419Z,14.52
2022-11-09T00:03:33.077Z,14.41
2022-11-09T00:06:00.616Z,14.27
2022-11-09T00:08:27.794Z,14.31
2022-11-09T00:10:54.451Z,14.21
2022-11-09T00:13:22.288Z,14.08
2022-11-09T00:15:49.294Z,14.03
2022-11-09T00:18:15.903Z,13.93
2022-11-09T00:20:47.297Z,13.93
2022-11-09T00:23:15.834Z,13.83
2022-11-09T00:25:42.785Z,13.75
2022-11-09T00:28:09.404Z,13.81
2022-11-09T00:30:36.218Z,13.75
2022-11-09T00:33:02.895Z,13.82
2022-11-09T00:35:29.514Z,13.83
2022-11-09T00:37:56.207Z,13.74
2022-11-09T00:40:25.623Z,13.78
2022-11-09T00:42:53.433Z,13.77
2022-11-09T00:45:21.850Z,13.95
2022-11-09T00:47:51.691Z,13.98
2022-11-09T00:50:19.572Z,13.90
2022-11-09T00:52:48.810Z,13.78
2022-11-09T00:55:16.762Z,13.85
2022-11-09T00:57:44.404Z,13.83
2022-11-09T01:00:11.644Z,13.73
2022-11-09T01:02:38.929Z,13.70
2022-11-09T01:05:05.856Z,13.71
2022-11-09T01:07:32.468Z,13.78
2022-11-09T01:09:59.088Z,13.72
2022-11-09T01:12:25.685Z,13.86
2022-11-09T01:14:52.314Z,13.79
2022-11-09T01:17:19.156Z,13.69
2022-11-09T01:19:46.973Z,13.64
2022-11-09T01:22:15.227Z,13.68
2022-11-09T01:24:41.935Z,13.77
2022-11-09T01:27:08.600Z,13.77
2022-11-09T01:29:36.416Z,13.65
2022-11-09T01:32:03.647Z,13.88
2022-11-09T01:34:32.244Z,13.70
2022-11-09T01:37:02.149Z,13.70
2022-11-09T01:39:30.309Z,13.75
2022-11-09T01:41:57.146Z,13.75
2022-11-09T01:44:27.566Z,13.95
2022-11-09T01:47:06.146Z,14.11
2022-11-09T01:49:42.214Z,14.02
2022-11-09T01:52:43.666Z,13.72
2022-11-09T01:55:18.163Z,13.64
2022-11-09T01:57:53.282Z,13.72
2022-11-09T02:00:20.060Z,13.56
2022-11-09T02:02:54.439Z,13.68
2022-11-09T02:05:25.276Z,13.66
2022-11-09T02:07:54.210Z,13.77
2022-11-09T02:10:27.300Z,13.54
2022-11-09T02:12:57.841Z,13.40
2022-11-09T02:15:25.273Z,13.31
2022-11-09T02:17:54.316Z,13.66
2022-11-09T02:20:22.277Z,13.61
2022-11-09T02:22:49.089Z,13.51
2022-11-09T02:25:17.539Z,13.59
2022-11-09T02:27:45.452Z,13.40
2022-11-09T02:30:14.845Z,13.64
2022-11-09T02:32:41.581Z,13.54
2022-11-09T02:35:09.536Z,13.41
2022-11-09T02:37:46.982Z,13.43
2022-11-09T02:40:29.577Z,13.34
2022-11-09T02:42:57.266Z,13.50
2022-11-09T02:45:23.903Z,13.38
2022-11-09T02:47:50.480Z,13.19
2022-11-09T02:50:17.329Z,13.28
2022-11-09T02:52:43.967Z,13.20
2022-11-09T02:55:11.988Z,13.10
2022-11-09T02:57:39.568Z,13.18
2022-11-09T03:00:07.159Z,13.13
2022-11-09T03:02:35.107Z,12.88
2022-11-09T03:05:02.403Z,13.09
2022-11-09T03:07:30.665Z,13.04
2022-11-09T03:09:57.632Z,13.04
2022-11-09T03:12:28.979Z,13.26
2022-11-09T03:15:04.206Z,13.34
2022-11-09T03:17:32.516Z,13.10
2022-11-09T03:19:59.301Z,12.98
2022-11-09T03:22:27.220Z,13.07
2022-11-09T03:24:53.886Z,12.95
2022-11-09T03:27:21.074Z,13.16
2022-11-09T03:29:49.398Z,13.22
2022-11-09T03:32:16.688Z,13.10
2022-11-09T03:34:43.414Z,12.94
2022-11-09T03:37:12.232Z,12.93
2022-11-09T03:39:38.919Z,13.07
2022-11-09T03:42:05.572Z,13.24
2022-11-09T03:44:32.167Z,13.32
2022-11-09T03:46:58.794Z,13.11
2022-11-09T03:49:25.369Z,13.07
2022-11-09T03:51:52.015Z,12.96
2022-11-09T03:54:21.907Z,12.97
2022-11-09T03:56:53.958Z,13.24
2022-11-09T03:59:22.158Z,13.08
2022-11-09T04:01:54.697Z,13.21
2022-11-09T04:04:22.394Z,13.42
2022-11-09T04:06:51.714Z,13.11
2022-11-09T04:09:18.461Z,13.08
2022-11-09T04:11:45.057Z,13.17
2022-11-09T04:14:11.630Z,12.99
2022-11-09T04:16:39.269Z,13.08
2022-11-09T04:19:06.021Z,13.23
2022-11-09T04:21:34.088Z,12.99
2022-11-09T04:24:00.735Z,13.11
2022-11-09T04:26:27.380Z,12.89
2022-11-09T04:28:54.023Z,13.02
2022-11-09T04:31:24.287Z,13.12
2022-11-09T04:33:54.493Z,12.90
2022-11-09T04:36:21.195Z,12.96
2022-11-09T04:38:47.824Z,13.27
2022-11-09T04:41:14.667Z,13.33
2022-11-09T04:43:41.701Z,13.06
2022-11-09T04:46:08.362Z,13.17
2022-11-09T04:48:35.027Z,13.25
2022-11-09T04:51:12.801Z,13.13
2022-11-09T04:53:39.780Z,13.10
2022-11-09T04:56:07.451Z,13.11
2022-11-09T04:58:34.744Z,13.23
2022-11-09T05:01:06.229Z,13.36
2022-11-09T05:03:33.140Z,13.25
2022-11-09T05:05:59.821Z,13.22
2022-11-09T05:08:26.938Z,13.26
2022-11-09T05:10:57.906Z,13.01
2022-11-09T05:13:24.526Z,13.02
2022-11-09T05:15:51.143Z,13.11
2022-11-09T05:18:17.767Z,12.98
2022-11-09T05:20:44.428Z,13.06
2022-11-09T05:23:49.341Z,13.15
2022-11-09T05:26:16.223Z,13.06
2022-11-09T05:28:42.971Z,13.18
2022-11-09T05:31:09.607Z,13.22
2022-11-09T05:33:36.282Z,13.03
2022-11-09T05:36:03.021Z,13.02
2022-11-09T05:38:29.703Z,12.95
2022-11-09T05:40:56.325Z,13.04
2022-11-09T05:43:23.028Z,13.03
2022-11-09T05:45:49.717Z,12.94
2022-11-09T05:48:17.979Z,12.83
2022-11-09T05:50:44.957Z,13.05
2022-11-09T05:53:22.340Z,13.01
2022-11-09T05:55:49.316Z,13.24
2022-11-09T05:58:15.960Z,13.18
2022-11-09T06:00:42.679Z,13.28
2022-11-09T06:03:10.963Z,13.21
2022-11-09T06:05:40.572Z,13.11
2022-11-09T06:08:13.985Z,13.02
2022-11-09T06:10:42.007Z,13.01
2022-11-09T06:13:09.300Z,13.02
2022-11-09T06:15:35.909Z,12.99
2022-11-09T06:18:02.565Z,13.05
2022-11-09T06:20:29.472Z,13.08
2022-11-09T06:23:03.560Z,13.08
2022-11-09T06:25:32.774Z,13.07
2022-11-09T06:27:59.775Z,13.12
2022-11-09T06:30:26.474Z,13.13
2022-11-09T06:32:58.940Z,12.95
2022-11-09T06:35:25.938Z,13.12
2022-11-09T06:37:57.597Z,13.04
2022-11-09T06:40:24.608Z,12.88
2022-11-09T06:42:51.593Z,13.07
2022-11-09T06:45:18.322Z,13.03
2022-11-09T06:47:44.975Z,13.12
2022-11-09T06:50:12.389Z,12.95
2022-11-09T06:52:39.012Z,13.02
2022-11-09T06:55:06.433Z,13.20
2022-11-09T06:57:33.035Z,12.93
2022-11-09T07:00:00.329Z,13.15
2022-11-09T07:02:27.430Z,13.22
2022-11-09T07:04:54.178Z,13.00
2022-11-09T07:07:26.402Z,13.07
2022-11-09T07:09:55.700Z,13.06
2022-11-09T07:12:22.515Z,13.10
2022-11-09T07:14:49.153Z,13.11
2022-11-09T07:17:15.837Z,12.96
2022-11-09T07:19:42.436Z,13.16
2022-11-09T07:22:09.202Z,13.27
2022-11-09T07:24:35.797Z,13.17
2022-11-09T07:27:02.501Z,13.24
2022-11-09T07:29:29.194Z,13.22
2022-11-09T07:31:55.863Z,13.12
2022-11-09T07:34:22.687Z,13.17
2022-11-09T07:36:49.275Z,13.05
2022-11-09T07:39:15.906Z,13.01
2022-11-09T07:41:42.532Z,13.05
2022-11-09T07:44:09.442Z,13.13
2022-11-09T07:46:36.078Z,13.12
2022-11-09T07:49:02.748Z,13.02
2022-11-09T07:51:29.383Z,13.23
2022-11-09T07:53:56.012Z,13.53
2022-11-09T07:56:31.360Z,13.43
2022-11-09T07:58:58.263Z,13.32
2022-11-09T08:01:29.316Z,13.15
2022-11-09T08:03:59.308Z,13.22
2022-11-09T08:06:28.532Z,13.36
2022-11-09T08:08:56.185Z,13.37
2022-11-09T08:11:24.512Z,13.35
2022-11-09T08:13:51.119Z,13.35
2022-11-09T08:16:17.747Z,13.25
2022-11-09T08:18:44.869Z,13.30
2022-11-09T08:21:11.512Z,13.27
2022-11-09T08:23:38.133Z,13.28
2022-11-09T08:26:06.246Z,13.13
2022-11-09T08:28:34.038Z,13.39
2022-11-09T08:31:04.106Z,13.46
2022-11-09T08:33:40.005Z,13.37
2022-11-09T08:36:17.427Z,13.40
2022-11-09T08:38:45.401Z,13.33
2022-11-09T08:41:13.785Z,13.43
2022-11-09T08:43:40.924Z,13.45
2022-11-09T08:46:07.628Z,13.39
2022-11-09T08:48:34.251Z,13.40
2022-11-09T08:51:00.974Z,13.47
2022-11-09T08:53:29.119Z,13.47
2022-11-09T08:55:56.300Z,13.62
2022-11-09T08:58:23.266Z,13.50
2022-11-09T09:00:50.308Z,13.68
2022-11-09T09:03:17.871Z,13.57
2022-11-09T09:05:44.534Z,13.72
2022-11-09T09:08:12.817Z,13.83
2022-11-09T09:10:40.583Z,13.87
2022-11-09T09:13:07.849Z,13.83
2022-11-09T09:15:34.561Z,13.72
2022-11-09T09:18:03.132Z,13.90
2022-11-09T09:20:30.557Z,13.80
2022-11-09T09:23:00.862Z,13.85
2022-11-09T09:25:28.283Z,13.76
2022-11-09T09:27:55.015Z,13.83
2022-11-09T09:30:22.009Z,13.95
2022-11-09T09:32:48.845Z,13.95
2022-11-09T09:35:15.666Z,14.02
2022-11-09T09:37:44.489Z,14.27
2022-11-09T09:40:40.692Z,14.20
2022-11-09T09:43:15.877Z,14.26
2022-11-09T09:45:51.511Z,14.20
2022-11-09T09:48:25.976Z,14.19
2022-11-09T09:50:55.749Z,14.33
2022-11-09T09:53:31.176Z,14.43
2022-11-09T09:56:06.093Z,14.32
2022-11-09T09:58:34.834Z,14.36
2022-11-09T10:01:15.143Z,14.41
2022-11-09T10:03:41.925Z,14.55
2022-11-09T10:06:14.554Z,14.45
2022-11-09T10:08:53.966Z,14.65
2022-11-09T10:11:50.022Z,14.59
2022-11-09T10:14:37.437Z,14.80
2022-11-09T10:17:48.396Z,15.25
2022-11-09T10:20:22.191Z,15.87
2022-11-09T10:23:15.505Z,15.73
2022-11-09T10:29:01.310Z,15.60
2022-11-09T10:31:23.516Z,15.61
2022-11-09T10:33:57.617Z,15.60
2022-11-09T10:36:30.622Z,15.47
2022-11-09T10:39:00.781Z,15.60
2022-11-09T10:41:49.016Z,15.47
2022-11-09T10:44:34.128Z,15.51
2022-11-09T10:47:19.743Z,15.37
2022-11-09T10:50:32.360Z,15.35
2022-11-09T10:53:19.139Z,15.25
2022-11-09T10:56:21.353Z,15.15
2022-11-09T10:59:49.471Z,15.17
2022-11-09T11:02:57.625Z,15.11
2022-11-09T11:05:44.589Z,15.30
2022-11-09T11:08:38.449Z,15.32
2022-11-09T11:11:34.311Z,15.41
2022-11-09T11:14:34.283Z,15.49
2022-11-09T11:17:45.099Z,15.49
2022-11-09T11:20:33.582Z,15.56
2022-11-09T11:23:21.760Z,15.57
2022-11-09T11:26:34.234Z,15.37
2022-11-09T11:29:19.319Z,15.44
2022-11-09T11:32:09.910Z,15.41
2022-11-09T11:35:02.731Z,15.37
2022-11-09T11:38:09.997Z,15.19
2022-11-09T11:41:14.086Z,15.12
2022-11-09T11:44:17.776Z,15.10
2022-11-09T11:47:15.713Z,15.01
2022-11-09T11:50:20.738Z,15.10
2022-11-09T11:53:17.054Z,15.05
2022-11-09T11:56:12.579Z,14.98
2022-11-09T11:59:11.767Z,15.05
2022-11-09T12:02:27.757Z,15.16
2022-11-09T12:05:41.287Z,15.29
2022-11-09T12:08:39.992Z,15.28
2022-11-09T12:11:35.516Z,15.14
2022-11-09T12:14:44.010Z,15.35
2022-11-09T12:17:56.023Z,15.31
2022-11-09T12:20:53.243Z,15.28
2022-11-09T12:23:54.199Z,15.33
2022-11-09T12:26:55.719Z,15.26
2022-11-09T12:30:13.091Z,15.26
2022-11-09T12:33:03.523Z,15.30
2022-11-09T12:36:13.973Z,15.16
2022-11-09T12:39:17.519Z,15.20
2022-11-09T12:42:13.640Z,15.24
2022-11-09T12:45:07.827Z,15.24
2022-11-09T12:47:56.341Z,15.23
2022-11-09T12:50:42.066Z,15.16
2022-11-09T12:53:34.635Z,15.22
2022-11-09T12:56:28.484Z,15.24
2022-11-09T12:59:34.908Z,15.26
2022-11-09T13:02:37.919Z,15.36
2022-11-09T13:05:37.848Z,15.31
2022-11-09T13:08:30.509Z,15.35
2022-11-09T13:11:39.200Z,15.37
2022-11-09T13:14:33.086Z,15.44
2022-11-09T13:17:38.760Z,15.41
2022-11-09T13:20:58.355Z,15.40
2022-11-09T13:24:03.199Z,15.45
2022-11-09T13:26:49.648Z,15.43
2022-11-09T13:29:40.682Z,15.43
2022-11-09T13:32:33.172Z,15.37
2022-11-09T13:35:40.198Z,15.42
2022-11-09T13:38:28.549Z,15.32
2022-11-09T13:41:32.154Z,15.39
2022-11-09T13:44:32.629Z,15.47
2022-11-09T13:47:23.755Z,15.40
2022-11-09T13:50:20.567Z,15.48
2022-11-09T13:53:30.535Z,15.27
2022-11-09T13:56:27.600Z,15.35
2022-11-09T13:59:35.174Z,15.60
2022-11-09T14:02:23.505Z,15.57
2022-11-09T14:05:31.759Z,15.60
2022-11-09T14:08:36.303Z,15.59
2022-11-09T14:12:03.001Z,15.61
2022-11-09T14:14:56.651Z,15.63
2022-11-09T14:17:53.978Z,15.51
2022-11-09T14:21:05.115Z,15.33
2022-11-09T14:23:51.440Z,15.27
2022-11-09T14:26:36.992Z,15.27
2022-11-09T14:29:24.807Z,15.33
2022-11-09T14:32:25.239Z,15.23
2022-11-09T14:35:21.143Z,15.24
2022-11-09T14:38:19.637Z,15.21
2022-11-09T14:41:05.459Z,15.23
2022-11-09T14:43:52.284Z,15.27
2022-11-09T14:46:37.441Z,15.19
2022-11-09T14:49:25.407Z,15.22
2022-11-09T14:52:16.182Z,15.13
2022-11-09T14:55:02.287Z,15.13
2022-11-09T14:57:53.256Z,15.08
2022-11-09T15:00:45.771Z,15.17
2022-11-09T15:03:31.833Z,15.08
2022-11-09T15:06:18.460Z,15.02
2022-11-09T15:09:08.447Z,15.00
2022-11-09T15:11:58.124Z,14.99
2022-11-09T15:14:52.370Z,15.00
2022-11-09T15:17:44.632Z,14.95
2022-11-09T15:20:33.359Z,14.95
2022-11-09T15:23:35.517Z,14.90
2022-11-09T15:26:28.762Z,14.91
2022-11-09T15:29:40.348Z,14.95
2022-11-09T15:32:25.546Z,14.85
2022-11-09T15:35:18.589Z,14.89
2022-11-09T15:38:04.202Z,14.89
2022-11-09T15:40:49.166Z,14.92
2022-11-09T15:43:36.358Z,14.93
2022-11-09T15:46:28.278Z,14.85
2022-11-09T15:49:24.008Z,14.90
2022-11-09T15:52:11.653Z,14.92
2022-11-09T15:54:57.359Z,14.89
2022-11-09T15:57:47.207Z,14.88
2022-11-09T16:00:33.478Z,14.75
2022-11-09T16:03:19.331Z,14.87
2022-11-09T16:06:10.380Z,14.85
2022-11-09T16:08:55.677Z,14.87
2022-11-09T16:11:41.628Z,14.90
2022-11-09T16:14:31.817Z,14.88
2022-11-09T16:17:18.463Z,14.76
2022-11-09T16:20:09.095Z,14.78
2022-11-09T16:22:54.576Z,14.74
2022-11-09T16:25:40.336Z,14.83
2022-11-09T16:28:25.523Z,14.72
2022-11-09T16:31:14.394Z,14.70
2022-11-09T16:33:59.691Z,14.64
2022-11-09T16:36:53.805Z,14.64
2022-11-09T16:39:42.012Z,14.66
2022-11-09T16:42:27.447Z,14.68
2022-11-09T16:45:15.167Z,14.57
2022-11-09T16:48:04.303Z,14.57
2022-11-09T16:50:49.523Z,14.59
2022-11-09T16:53:34.740Z,14.52
2022-11-09T16:56:20.024Z,14.53
2022-11-09T16:59:05.278Z,14.53
2022-11-09T17:01:56.580Z,14.51
2022-11-09T17:04:42.094Z,14.56
2022-11-09T17:07:28.366Z,14.48
2022-11-09T17:10:15.905Z,14.46
2022-11-09T17:13:01.576Z,14.53
2022-11-09T17:15:50.276Z,14.53
2022-11-09T17:18:37.840Z,14.35
2022-11-09T17:21:30.115Z,14.47
2022-11-09T17:24:19.054Z,14.41
2022-11-09T17:27:05.053Z,14.41
2022-11-09T17:29:51.657Z,14.45
2022-11-09T17:32:40.605Z,14.35
2022-11-09T17:35:28.585Z,14.33
2022-11-09T17:38:14.823Z,14.31
2022-11-09T17:41:17.350Z,14.33
2022-11-09T17:44:06.105Z,14.40
2022-11-09T17:46:52.298Z,14.23
2022-11-09T17:49:43.568Z,14.33
2022-11-09T17:52:31.127Z,14.38
2022-11-09T17:55:17.201Z,14.31
2022-11-09T17:58:04.529Z,14.36
2022-11-09T18:00:49.788Z,14.36
2022-11-09T18:03:38.951Z,14.26
2022-11-09T18:06:25.276Z,14.38
2022-11-09T18:09:39.706Z,14.39
2022-11-09T18:12:16.713Z,14.39
2022-11-09T18:15:02.040Z,14.35
2022-11-09T18:17:47.410Z,14.33
2022-11-09T18:20:33.103Z,14.30
2022-11-09T18:23:18.238Z,14.20
2022-11-09T18:26:05.002Z,14.17
2022-11-09T18:28:50.315Z,14.21
2022-11-09T18:31:39.823Z,14.19
2022-11-09T18:34:33.915Z,14.12
2022-11-09T18:37:20.744Z,14.03
2022-11-09T18:40:08.031Z,14.04
2022-11-09T18:42:54.106Z,14.09
2022-11-09T18:45:41.771Z,14.15
2022-11-09T18:48:28.046Z,14.33
2022-11-09T18:51:14.414Z,14.29
2022-11-09T18:53:59.682Z,14.20
2022-11-09T18:56:52.170Z,14.18
2022-11-09T18:59:40.201Z,14.11
2022-11-09T19:02:26.390Z,14.20
2022-11-09T19:05:11.953Z,14.25
2022-11-09T19:07:57.556Z,14.26
2022-11-09T19:10:43.476Z,14.26
2022-11-09T19:13:29.098Z,14.26
2022-11-09T19:16:17.774Z,14.23
2022-11-09T19:19:03.406Z,14.16
2022-11-09T19:21:56.740Z,14.19
2022-11-09T19:24:42.247Z,14.11
2022-11-09T19:27:31.296Z,14.04
2022-11-09T19:30:18.166Z,14.06
2022-11-09T19:33:03.997Z,14.00
2022-11-09T19:36:23.115Z,13.89
2022-11-09T19:39:01.099Z,13.93
2022-11-09T19:41:47.105Z,13.81
2022-11-09T19:44:35.999Z,13.90
2022-11-09T19:47:21.824Z,13.89
2022-11-09T19:50:08.151Z,13.96
2022-11-09T19:52:56.745Z,13.95
2022-11-09T19:55:46.409Z,14.00
2022-11-09T19:58:32.693Z,13.96
2022-11-09T20:01:22.283Z,14.02
2022-11-09T20:04:10.978Z,14.04
2022-11-09T20:06:57.644Z,13.99
2022-11-09T20:09:44.234Z,13.98
2022-11-09T20:12:49.179Z,13.89
2022-11-09T20:15:37.595Z,14.05
2022-11-09T20:18:25.343Z,13.97
2022-11-09T20:21:12.049Z,13.90
2022-11-09T20:24:00.826Z,13.97
2022-11-09T20:26:49.432Z,13.83
2022-11-09T20:29:35.245Z,13.82
2022-11-09T20:32:21.805Z,13.97
2022-11-09T20:35:11.938Z,13.92
2022-11-09T20:37:57.628Z,13.88
2022-11-09T20:40:43.953Z,13.89
2022-11-09T20:43:29.439Z,13.86
2022-11-09T20:46:18.120Z,13.82
2022-11-09T20:49:05.421Z,13.80
2022-11-09T20:51:50.778Z,13.87
2022-11-09T20:54:37.367Z,13.84
2022-11-09T20:57:26.794Z,13.80
2022-11-09T21:00:14.176Z,13.76
2022-11-09T21:03:01.041Z,13.79
2022-11-09T21:05:51.642Z,13.77
2022-11-09T21:08:39.167Z,13.70
2022-11-09T21:11:36.927Z,13.80
2022-11-09T21:14:25.264Z,13.80
2022-11-09T21:17:11.616Z,13.70
2022-11-09T21:19:57.278Z,13.85
2022-11-09T21:23:03.858Z,13.84
2022-11-09T21:26:08.793Z,13.69
2022-11-09T21:29:13.564Z,13.63
2022-11-09T21:32:00.645Z,13.83
2022-11-09T21:34:47.642Z,13.82
2022-11-09T21:37:36.609Z,13.82
2022-11-09T21:40:22.041Z,13.86
2022-11-09T21:43:08.429Z,13.80
2022-11-09T21:45:54.132Z,13.63
2022-11-09T21:48:40.008Z,13.85
2022-11-09T21:51:27.311Z,13.88
2022-11-09T21:54:14.984Z,13.79
2022-11-09T21:57:01.748Z,13.53
2022-11-09T21:59:48.566Z,13.50
2022-11-09T22:02:33.974Z,13.71
2022-11-09T22:05:22.992Z,13.59
2022-11-09T22:08:08.831Z,13.77
2022-11-09T22:11:11.147Z,13.62
2022-11-09T22:14:17.357Z,13.64
2022-11-09T22:17:09.217Z,13.83
2022-11-09T22:20:13.602Z,13.51
2022-11-09T22:22:58.786Z,13.76
2022-11-09T22:25:47.933Z,13.97
2022-11-09T22:28:33.997Z,13.73
2022-11-09T22:31:19.394Z,13.36
2022-11-09T22:34:05.245Z,13.29
2022-11-09T22:36:50.637Z,13.76
2022-11-09T22:39:36.228Z,13.84
2022-11-09T22:42:21.566Z,13.74
2022-11-09T22:45:07.328Z,13.71
2022-11-09T22:47:52.303Z,13.61
2022-11-09T22:50:37.677Z,13.32
2022-11-09T22:53:23.270Z,13.29
2022-11-09T22:56:11.112Z,13.19
2022-11-09T22:59:03.865Z,13.36
2022-11-09T23:01:49.754Z,13.43
2022-11-09T23:04:35.445Z,13.57
2022-11-09T23:07:20.545Z,13.52
2022-11-09T23:10:06.773Z,13.46
2022-11-09T23:12:54.278Z,13.42
2022-11-09T23:15:39.833Z,13.25
2022-11-09T23:18:44.617Z,13.11
2022-11-09T23:21:33.015Z,13.00
2022-11-09T23:24:36.505Z,13.17
2022-11-09T23:27:22.061Z,13.37
2022-11-09T23:30:07.823Z,13.29
2022-11-09T23:32:52.992Z,13.00
2022-11-09T23:35:38.544Z,13.07
2022-11-09T23:38:24.681Z,13.05
2022-11-09T23:41:11.822Z,13.08
2022-11-09T23:43:57.342Z,13.12
2022-11-09T23:46:42.637Z,13.17
2022-11-09T23:49:27.774Z,12.90
2022-11-09T23:52:13.491Z,12.86
2022-11-09T23:54:58.618Z,12.75
2022-11-09T23:57:44.390Z,12.70
